createdAt,value
2019-02-20T00:01:23.355Z,7.20
2019-02-20T00:03:52.216Z,7.20
2019-02-20T00:06:21.102Z,7.10
2019-02-20T00:08:50.107Z,7.10
2019-02-20T00:11:18.970Z,7.10
2019-02-20T00:13:47.866Z,7.10
2019-02-20T00:16:16.833Z,7.10
2019-02-20T00:18:46.936Z,7.10
2019-02-20T00:21:15.865Z,7.10
2019-02-20T00:23:44.750Z,7.10
2019-02-20T00:26:13.716Z,7.10
2019-02-20T00:28:42.862Z,7.10
2019-02-20T00:31:12.000Z,7.10
2019-02-20T00:33:40.945Z,7.10
2019-02-20T00:36:09.851Z,7.10
2019-02-20T00:38:38.698Z,7.10
2019-02-20T00:41:07.749Z,7.10
2019-02-20T00:43:36.569Z,7.10
2019-02-20T00:46:11.373Z,7.10
2019-02-20T00:49:00.136Z,7.10
2019-02-20T00:51:51.081Z,7.10
2019-02-20T00:54:20.017Z,7.10
2019-02-20T00:56:49.045Z,7.10
2019-02-20T00:59:17.976Z,7.10
2019-02-20T01:01:46.939Z,7.10
2019-02-20T01:04:15.813Z,7.10
2019-02-20T01:06:45.304Z,7.10
2019-02-20T01:09:14.419Z,7.10
2019-02-20T01:11:43.232Z,7.10
2019-02-20T01:14:12.319Z,7.10
2019-02-20T01:16:41.355Z,7.10
2019-02-20T01:19:10.389Z,7.10
2019-02-20T01:21:39.295Z,7.10
2019-02-20T01:24:08.215Z,7.10
2019-02-20T01:26:37.287Z,7.10
2019-02-20T01:29:07.358Z,7.10
2019-02-20T01:31:36.223Z,7.10
2019-02-20T01:34:05.192Z,7.10
2019-02-20T01:36:34.063Z,7.00
2019-02-20T01:39:04.764Z,7.00
2019-02-20T01:41:33.569Z,7.00
2019-02-20T01:44:02.572Z,7.00
2019-02-20T01:46:31.390Z,6.90
2019-02-20T01:49:00.289Z,6.90
2019-02-20T01:51:29.242Z,6.90
2019-02-20T01:53:58.372Z,6.90
2019-02-20T01:56:27.220Z,6.90
2019-02-20T01:58:56.253Z,6.90
2019-02-20T02:01:25.128Z,6.90
2019-02-20T02:03:54.148Z,6.90
2019-02-20T02:06:22.998Z,6.80
2019-02-20T02:08:52.092Z,6.80
2019-02-20T02:11:20.993Z,6.80
2019-02-20T02:13:49.854Z,6.80
2019-02-20T02:16:18.792Z,6.80
2019-02-20T02:18:47.658Z,6.80
2019-02-20T02:21:16.558Z,6.80
2019-02-20T02:23:47.557Z,6.80
2019-02-20T02:26:16.044Z,6.80
2019-02-20T02:28:45.087Z,6.80
2019-02-20T02:31:14.023Z,6.70
2019-02-20T02:33:42.844Z,6.70
2019-02-20T02:36:11.721Z,6.70
2019-02-20T02:38:40.712Z,6.70
2019-02-20T02:41:09.510Z,6.80
2019-02-20T02:43:38.385Z,6.80
2019-02-20T02:46:07.307Z,6.80
2019-02-20T02:48:36.356Z,6.80
2019-02-20T02:51:05.258Z,6.80
2019-02-20T02:53:34.141Z,6.70
2019-02-20T02:56:03.002Z,6.80
2019-02-20T02:58:31.842Z,6.80
2019-02-20T03:01:00.746Z,6.80
2019-02-20T03:03:29.608Z,6.80
2019-02-20T03:05:58.606Z,6.80
2019-02-20T03:08:27.682Z,6.80
2019-02-20T03:10:56.485Z,6.80
2019-02-20T03:13:25.452Z,6.80
2019-02-20T03:15:54.478Z,6.80
2019-02-20T03:18:23.469Z,6.80
2019-02-20T03:20:52.301Z,6.80
2019-02-20T03:23:21.181Z,6.80
2019-02-20T03:25:50.035Z,6.80
2019-02-20T03:28:18.955Z,6.80
2019-02-20T03:30:47.847Z,6.80
2019-02-20T03:33:16.754Z,6.80
2019-02-20T03:35:45.688Z,6.80
2019-02-20T03:38:14.704Z,6.80
2019-02-20T03:40:43.597Z,6.80
2019-02-20T03:43:12.499Z,6.80
2019-02-20T03:45:41.354Z,6.80
2019-02-20T03:50:46.970Z,6.90
2019-02-20T03:53:15.809Z,6.80
2019-02-20T03:55:44.694Z,6.80
2019-02-20T03:58:14.175Z,6.80
2019-02-20T04:00:42.979Z,6.80
2019-02-20T04:03:11.850Z,6.80
2019-02-20T04:05:40.831Z,6.80
2019-02-20T04:08:10.918Z,6.80
2019-02-20T04:10:39.794Z,6.70
2019-02-20T04:13:08.714Z,6.70
2019-02-20T04:15:37.769Z,6.70
2019-02-20T04:18:06.772Z,6.60
2019-02-20T04:20:35.737Z,6.60
2019-02-20T04:23:04.714Z,6.60
2019-02-20T04:25:33.665Z,6.50
2019-02-20T04:28:02.753Z,6.50
2019-02-20T04:30:31.624Z,6.50
2019-02-20T04:33:00.502Z,6.50
2019-02-20T04:35:29.384Z,6.40
2019-02-20T04:37:58.276Z,6.40
2019-02-20T04:40:27.484Z,6.40
2019-02-20T04:42:58.473Z,6.40
2019-02-20T04:45:26.923Z,6.40
2019-02-20T04:47:55.912Z,6.40
2019-02-20T04:50:24.861Z,6.40
2019-02-20T04:52:53.776Z,6.40
2019-02-20T04:55:22.756Z,6.30
2019-02-20T04:58:13.626Z,6.30
2019-02-20T05:00:42.810Z,6.30
2019-02-20T05:03:11.659Z,6.30
2019-02-20T05:05:40.699Z,6.30
2019-02-20T05:08:09.693Z,6.30
2019-02-20T05:10:38.584Z,6.30
2019-02-20T05:13:07.553Z,6.30
2019-02-20T05:15:36.506Z,6.30
2019-02-20T05:18:05.503Z,6.30
2019-02-20T05:20:34.343Z,6.30
2019-02-20T05:23:03.229Z,6.30
2019-02-20T05:25:32.198Z,6.30
2019-02-20T05:28:01.253Z,6.30
2019-02-20T05:30:30.181Z,6.30
2019-02-20T05:32:59.054Z,6.30
2019-02-20T05:35:28.153Z,6.20
2019-02-20T05:37:56.973Z,6.20
2019-02-20T05:40:26.054Z,6.20
2019-02-20T05:42:54.955Z,6.20
2019-02-20T05:45:23.916Z,6.20
2019-02-20T05:47:52.840Z,6.20
2019-02-20T05:50:22.021Z,6.20
2019-02-20T05:52:50.887Z,6.20
2019-02-20T05:55:19.776Z,6.20
2019-02-20T05:57:48.652Z,6.20
2019-02-20T06:00:17.695Z,6.20
2019-02-20T06:02:46.562Z,6.20
2019-02-20T06:05:15.732Z,6.20
2019-02-20T06:07:44.758Z,6.20
2019-02-20T06:10:13.650Z,6.20
2019-02-20T06:12:42.644Z,6.20
2019-02-20T06:15:13.429Z,6.20
2019-02-20T06:17:42.244Z,6.30
2019-02-20T06:20:11.491Z,6.30
2019-02-20T06:22:40.424Z,6.30
2019-02-20T06:25:09.392Z,6.30
2019-02-20T06:27:38.405Z,6.30
2019-02-20T06:30:09.827Z,6.30
2019-02-20T06:32:38.752Z,6.30
2019-02-20T06:35:07.907Z,6.30
2019-02-20T06:37:36.730Z,6.30
2019-02-20T06:40:06.528Z,6.30
2019-02-20T06:42:35.671Z,6.20
2019-02-20T06:45:07.923Z,6.30
2019-02-20T06:47:36.791Z,6.30
2019-02-20T06:50:06.009Z,6.30
2019-02-20T06:52:35.002Z,6.30
2019-02-20T06:55:04.011Z,6.30
2019-02-20T06:57:32.906Z,6.30
2019-02-20T07:00:01.999Z,6.30
2019-02-20T07:02:30.872Z,6.30
2019-02-20T07:05:28.563Z,6.30
2019-02-20T07:08:38.050Z,6.30
2019-02-20T07:11:41.294Z,6.40
2019-02-20T07:14:40.610Z,6.40
2019-02-20T07:17:30.762Z,6.40
2019-02-20T07:20:33.005Z,6.40
2019-02-20T07:23:27.753Z,6.50
2019-02-20T07:26:20.004Z,6.50
2019-02-20T07:29:45.620Z,6.50
2019-02-20T07:32:16.694Z,6.60
2019-02-20T07:34:45.835Z,6.60
2019-02-20T07:37:14.939Z,6.60
2019-02-20T07:39:44.134Z,6.60
2019-02-20T07:42:12.973Z,6.70
2019-02-20T07:44:41.830Z,6.70
2019-02-20T07:47:10.764Z,6.70
2019-02-20T07:49:41.520Z,6.70
2019-02-20T07:52:10.705Z,6.70
2019-02-20T07:54:39.709Z,6.70
2019-02-20T07:57:08.698Z,6.70
2019-02-20T07:59:37.770Z,6.70
2019-02-20T08:02:06.778Z,6.80
2019-02-20T08:04:35.778Z,6.80
2019-02-20T08:07:04.653Z,6.80
2019-02-20T08:09:34.575Z,6.80
2019-02-20T08:12:03.858Z,6.90
2019-02-20T08:14:32.766Z,6.90
2019-02-20T08:17:01.645Z,6.90
2019-02-20T08:19:30.480Z,7.00
2019-02-20T08:21:59.342Z,7.00
2019-02-20T08:24:28.274Z,7.00
2019-02-20T08:26:57.212Z,7.00
2019-02-20T08:29:26.248Z,7.10
2019-02-20T08:31:55.117Z,7.10
2019-02-20T08:34:24.005Z,7.10
2019-02-20T08:36:52.881Z,7.10
2019-02-20T08:39:21.659Z,7.10
2019-02-20T08:41:50.487Z,7.20
2019-02-20T08:44:19.444Z,7.20
2019-02-20T08:46:48.346Z,7.30
2019-02-20T08:49:17.315Z,7.30
2019-02-20T08:51:46.136Z,7.40
2019-02-20T08:54:15.022Z,7.40
2019-02-20T08:56:43.946Z,7.40
2019-02-20T08:59:12.919Z,7.50
2019-02-20T09:01:41.754Z,7.60
2019-02-20T09:04:10.542Z,7.60
2019-02-20T09:06:39.342Z,7.60
2019-02-20T09:09:08.743Z,7.70
2019-02-20T09:11:37.500Z,7.80
2019-02-20T09:14:06.267Z,7.80
2019-02-20T09:16:35.385Z,7.80
2019-02-20T09:19:04.333Z,7.80
2019-02-20T09:21:33.110Z,7.90
2019-02-20T09:24:01.920Z,7.90
2019-02-20T09:26:30.785Z,7.80
2019-02-20T09:28:59.778Z,7.90
2019-02-20T09:31:28.612Z,7.80
2019-02-20T09:33:57.443Z,7.80
2019-02-20T09:36:26.297Z,7.80
2019-02-20T09:38:55.214Z,7.90
2019-02-20T09:41:24.008Z,7.80
2019-02-20T09:43:52.831Z,7.90
2019-02-20T09:46:21.809Z,7.80
2019-02-20T09:48:50.716Z,7.90
2019-02-20T09:51:19.621Z,7.90
2019-02-20T09:53:48.433Z,7.90
2019-02-20T09:56:17.281Z,7.90
2019-02-20T09:58:46.253Z,7.90
2019-02-20T10:01:15.051Z,8.00
2019-02-20T10:03:43.851Z,8.00
2019-02-20T10:06:13.064Z,8.10
2019-02-20T10:08:42.487Z,8.10
2019-02-20T10:11:12.391Z,8.20
2019-02-20T10:13:41.210Z,8.30
2019-02-20T10:16:10.077Z,8.30
2019-02-20T10:18:39.008Z,8.40
2019-02-20T10:21:07.917Z,8.40
2019-02-20T10:23:36.681Z,8.50
2019-02-20T10:26:05.520Z,8.50
2019-02-20T10:28:35.597Z,8.60
2019-02-20T10:31:04.409Z,8.70
2019-02-20T10:33:33.287Z,8.80
2019-02-20T10:36:02.164Z,8.80
2019-02-20T10:38:32.999Z,8.90
2019-02-20T10:41:03.337Z,8.90
2019-02-20T10:43:32.115Z,8.90
2019-02-20T10:46:01.007Z,9.00
2019-02-20T10:48:30.003Z,9.00
2019-02-20T10:50:58.873Z,9.10
2019-02-20T10:53:27.678Z,9.20
2019-02-20T10:55:56.456Z,9.20
2019-02-20T10:58:25.377Z,9.30
2019-02-20T11:00:54.277Z,9.40
2019-02-20T11:03:23.068Z,9.40
2019-02-20T11:05:52.125Z,9.40
2019-02-20T11:08:21.118Z,9.40
2019-02-20T11:10:49.903Z,9.50
2019-02-20T11:13:18.686Z,9.40
2019-02-20T11:15:47.533Z,9.40
2019-02-20T11:18:16.436Z,9.40
2019-02-20T11:20:48.502Z,9.40
2019-02-20T11:23:15.914Z,9.40
2019-02-20T11:25:44.694Z,9.50
2019-02-20T11:28:13.651Z,9.60
2019-02-20T11:30:42.445Z,9.60
2019-02-20T11:33:11.277Z,9.70
2019-02-20T11:35:40.352Z,9.80
2019-02-20T11:38:09.283Z,9.90
2019-02-20T11:40:38.096Z,10.00
2019-02-20T11:43:07.036Z,10.00
2019-02-20T11:45:35.853Z,10.10
2019-02-20T11:48:05.905Z,10.20
2019-02-20T11:50:34.717Z,10.10
2019-02-20T11:53:03.606Z,10.10
2019-02-20T11:55:32.502Z,10.10
2019-02-20T11:58:01.310Z,10.20
2019-02-20T12:00:30.163Z,10.20
2019-02-20T12:02:59.045Z,10.30
2019-02-20T12:05:28.070Z,10.30
2019-02-20T12:07:56.858Z,10.30
2019-02-20T12:10:25.946Z,10.40
2019-02-20T12:12:54.939Z,10.40
2019-02-20T12:15:23.915Z,10.40
2019-02-20T12:17:52.704Z,10.40
2019-02-20T12:20:21.594Z,10.40
2019-02-20T12:22:50.480Z,10.40
2019-02-20T12:25:19.232Z,10.40
2019-02-20T12:27:48.063Z,10.40
2019-02-20T12:30:17.242Z,10.50
2019-02-20T12:32:46.128Z,10.50
2019-02-20T12:35:14.970Z,10.50
2019-02-20T12:37:43.934Z,10.60
2019-02-20T12:40:13.148Z,10.60
2019-02-20T12:42:42.096Z,10.60
2019-02-20T12:45:11.169Z,10.70
2019-02-20T12:47:39.982Z,10.80
2019-02-20T12:50:09.114Z,10.80
2019-02-20T12:52:37.968Z,10.90
2019-02-20T12:55:07.125Z,11.00
2019-02-20T12:57:36.039Z,11.00
2019-02-20T13:00:05.695Z,11.00
2019-02-20T13:02:36.046Z,11.00
2019-02-20T13:05:06.063Z,11.00
2019-02-20T13:07:34.888Z,11.10
2019-02-20T13:10:04.374Z,11.10
2019-02-20T13:12:33.351Z,11.10
2019-02-20T13:15:02.170Z,11.10
2019-02-20T13:17:30.964Z,11.10
2019-02-20T13:19:59.887Z,11.10
2019-02-20T13:22:28.682Z,11.10
2019-02-20T13:24:57.487Z,11.10
2019-02-20T13:27:26.247Z,11.20
2019-02-20T13:29:55.234Z,11.20
2019-02-20T13:32:24.166Z,11.20
2019-02-20T13:34:52.967Z,11.20
2019-02-20T13:37:21.768Z,11.30
2019-02-20T13:39:52.179Z,11.30
2019-02-20T13:42:21.462Z,11.30
2019-02-20T13:44:50.305Z,11.30
2019-02-20T13:47:19.196Z,11.30
2019-02-20T13:49:49.192Z,11.40
2019-02-20T13:52:18.091Z,11.40
2019-02-20T13:54:47.032Z,11.50
2019-02-20T13:57:16.490Z,11.50
2019-02-20T13:59:46.393Z,11.60
2019-02-20T14:02:15.253Z,11.60
2019-02-20T14:04:44.096Z,11.60
2019-02-20T14:07:12.937Z,11.60
2019-02-20T14:09:41.949Z,11.70
2019-02-20T14:12:10.832Z,11.70
2019-02-20T14:14:39.945Z,11.60
2019-02-20T14:17:08.751Z,11.60
2019-02-20T14:19:37.843Z,11.60
2019-02-20T14:22:07.755Z,11.60
2019-02-20T14:24:37.655Z,11.60
2019-02-20T14:27:10.690Z,11.60
2019-02-20T14:29:37.287Z,11.60
2019-02-20T14:32:06.180Z,11.60
2019-02-20T14:34:35.043Z,11.70
2019-02-20T14:37:03.836Z,11.70
2019-02-20T14:39:32.653Z,11.70
2019-02-20T14:42:01.687Z,11.80
2019-02-20T14:44:30.842Z,11.80
2019-02-20T14:46:59.730Z,11.70
2019-02-20T14:49:28.675Z,11.60
2019-02-20T14:51:57.494Z,11.60
2019-02-20T14:54:26.374Z,11.60
2019-02-20T14:56:55.180Z,11.60
2019-02-20T14:59:24.078Z,11.60
2019-02-20T15:01:53.626Z,11.60
2019-02-20T15:04:22.473Z,11.60
2019-02-20T15:06:51.363Z,11.70
2019-02-20T15:09:20.547Z,11.70
2019-02-20T15:11:49.324Z,11.70
2019-02-20T15:14:18.145Z,11.60
2019-02-20T15:16:47.705Z,11.60
2019-02-20T15:19:16.629Z,11.60
2019-02-20T15:21:45.556Z,11.50
2019-02-20T15:24:15.342Z,11.50
2019-02-20T15:26:44.494Z,11.50
2019-02-20T15:29:13.474Z,11.40
2019-02-20T15:31:42.532Z,11.40
2019-02-20T15:34:11.412Z,11.40
2019-02-20T15:36:40.296Z,11.40
2019-02-20T15:39:09.832Z,11.40
2019-02-20T15:41:38.752Z,11.30
2019-02-20T15:44:07.557Z,11.20
2019-02-20T15:46:36.391Z,11.20
2019-02-20T15:49:05.622Z,11.20
2019-02-20T15:51:34.442Z,11.10
2019-02-20T15:54:03.247Z,11.10
2019-02-20T15:56:32.096Z,11.10
2019-02-20T15:59:01.306Z,11.10
2019-02-20T16:01:30.462Z,11.10
2019-02-20T16:03:59.219Z,11.10
2019-02-20T16:06:28.056Z,11.00
2019-02-20T16:08:57.976Z,11.00
2019-02-20T16:11:26.773Z,11.00
2019-02-20T16:13:55.608Z,10.90
2019-02-20T16:16:24.482Z,10.90
2019-02-20T16:18:53.595Z,10.90
2019-02-20T16:21:23.025Z,10.90
2019-02-20T16:23:52.047Z,10.80
2019-02-20T16:26:20.899Z,10.80
2019-02-20T16:28:49.838Z,10.80
2019-02-20T16:31:18.748Z,10.80
2019-02-20T16:33:47.773Z,10.80
2019-02-20T16:36:16.806Z,10.80
2019-02-20T16:38:47.830Z,10.80
2019-02-20T16:41:16.827Z,10.70
2019-02-20T16:43:45.758Z,10.70
2019-02-20T16:46:16.859Z,10.70
2019-02-20T16:48:45.292Z,10.70
2019-02-20T16:51:14.165Z,10.70
2019-02-20T16:53:43.337Z,10.60
2019-02-20T16:56:12.299Z,10.60
2019-02-20T16:58:43.230Z,10.60
2019-02-20T17:01:12.671Z,10.60
2019-02-20T17:03:41.550Z,10.60
2019-02-20T17:06:10.351Z,10.50
2019-02-20T17:08:40.404Z,10.50
2019-02-20T17:11:09.255Z,10.50
2019-02-20T17:13:39.571Z,10.40
2019-02-20T17:16:10.378Z,10.40
2019-02-20T17:18:39.375Z,10.40
2019-02-20T17:21:08.224Z,10.40
2019-02-20T17:23:37.525Z,10.40
2019-02-20T17:26:06.403Z,10.30
2019-02-20T17:28:35.383Z,10.30
2019-02-20T17:31:04.351Z,10.30
2019-02-20T17:33:33.294Z,10.20
2019-02-20T17:36:02.254Z,10.20
2019-02-20T17:38:31.643Z,10.10
2019-02-20T17:41:00.606Z,10.10
2019-02-20T17:43:29.467Z,10.10
2019-02-20T17:45:58.411Z,10.00
2019-02-20T17:48:27.469Z,10.00
2019-02-20T17:50:56.332Z,10.00
2019-02-20T17:53:25.242Z,9.90
2019-02-20T17:55:54.202Z,10.00
2019-02-20T17:58:23.129Z,9.90
2019-02-20T18:00:52.176Z,9.90
2019-02-20T18:03:21.092Z,9.80
2019-02-20T18:05:50.044Z,9.80
2019-02-20T18:08:19.197Z,9.80
2019-02-20T18:10:48.204Z,9.80
2019-02-20T18:13:17.042Z,9.70
2019-02-20T18:15:45.964Z,9.70
2019-02-20T18:18:15.031Z,9.70
2019-02-20T18:20:43.921Z,9.60
2019-02-20T18:23:12.704Z,9.60
2019-02-20T18:25:41.588Z,9.60
2019-02-20T18:28:10.490Z,9.60
2019-02-20T18:30:39.325Z,9.60
2019-02-20T18:33:08.140Z,9.60
2019-02-20T18:35:36.939Z,9.60
2019-02-20T18:38:05.882Z,9.60
2019-02-20T18:40:34.844Z,9.60
2019-02-20T18:43:03.895Z,9.50
2019-02-20T18:45:32.694Z,9.50
2019-02-20T18:48:01.635Z,9.50
2019-02-20T18:50:30.578Z,9.50
2019-02-20T18:52:59.447Z,9.50
2019-02-20T18:55:28.239Z,9.50
2019-02-20T18:57:57.201Z,9.50
2019-02-20T19:00:26.113Z,9.50
2019-02-20T19:02:54.939Z,9.50
2019-02-20T19:05:23.893Z,9.40
2019-02-20T19:07:52.787Z,9.40
2019-02-20T19:10:25.912Z,9.30
2019-02-20T19:13:29.568Z,9.30
2019-02-20T19:16:40.673Z,9.30
2019-02-20T19:19:32.635Z,9.20
2019-02-20T19:22:30.587Z,9.20
2019-02-20T19:25:53.347Z,9.10
2019-02-20T19:28:50.862Z,9.10
2019-02-20T19:31:40.084Z,9.00
2019-02-20T19:34:42.270Z,9.00
2019-02-20T19:37:47.022Z,9.00
2019-02-20T19:40:46.767Z,8.90
2019-02-20T19:43:44.665Z,8.90
2019-02-20T19:47:05.182Z,8.90
2019-02-20T19:50:18.165Z,8.90
2019-02-20T19:53:05.792Z,8.90
2019-02-20T19:56:14.328Z,8.80
2019-02-20T19:59:23.528Z,8.80
2019-02-20T20:02:28.324Z,8.80
2019-02-20T20:05:41.577Z,8.70
2019-02-20T20:08:40.436Z,8.70
2019-02-20T20:12:01.579Z,8.70
2019-02-20T20:15:06.218Z,8.70
2019-02-20T20:18:08.529Z,8.60
2019-02-20T20:21:11.163Z,8.60
2019-02-20T20:24:33.593Z,8.60
2019-02-20T20:27:35.149Z,8.50
2019-02-20T20:30:28.231Z,8.50
2019-02-20T20:33:17.214Z,8.40
2019-02-20T20:35:58.986Z,8.40
2019-02-20T20:38:59.557Z,8.30
2019-02-20T20:42:14.324Z,8.30
2019-02-20T20:45:27.751Z,8.30
2019-02-20T20:48:11.833Z,8.30
2019-02-20T20:51:14.552Z,8.30
2019-02-20T20:54:09.734Z,8.30
2019-02-20T20:57:25.913Z,8.30
2019-02-20T21:00:51.184Z,8.20
2019-02-20T21:03:20.404Z,8.20
2019-02-20T21:06:35.257Z,8.20
2019-02-20T21:09:38.770Z,8.10
2019-02-20T21:12:35.560Z,8.10
2019-02-20T21:15:38.016Z,8.10
2019-02-20T21:18:45.351Z,8.10
2019-02-20T21:21:41.878Z,8.00
2019-02-20T21:25:00.407Z,8.00
2019-02-20T21:27:53.472Z,7.90
2019-02-20T21:30:37.665Z,7.80
2019-02-20T21:33:41.540Z,7.70
2019-02-20T21:36:23.895Z,7.70
2019-02-20T21:39:35.261Z,7.70
2019-02-20T21:42:27.738Z,7.70
2019-02-20T21:45:21.699Z,7.70
2019-02-20T21:48:15.691Z,7.80
2019-02-20T21:51:33.245Z,7.70
2019-02-20T21:54:31.426Z,7.70
2019-02-20T21:57:17.619Z,7.70
2019-02-20T22:00:13.043Z,7.70
2019-02-20T22:03:03.592Z,7.70
2019-02-20T22:06:12.409Z,7.80
2019-02-20T22:09:09.262Z,7.80
2019-02-20T22:12:16.374Z,7.80
2019-02-20T22:15:16.820Z,7.80
2019-02-20T22:17:53.583Z,7.90
2019-02-20T22:21:06.457Z,7.90
2019-02-20T22:24:11.342Z,7.90
2019-02-20T22:27:08.258Z,7.90
2019-02-20T22:30:20.741Z,7.90
2019-02-20T22:33:20.598Z,8.00
2019-02-20T22:36:11.813Z,8.00
2019-02-20T22:39:14.886Z,7.90
2019-02-20T22:42:37.124Z,7.90
2019-02-20T22:45:49.290Z,8.00
2019-02-20T22:49:16.895Z,7.90
2019-02-20T22:52:15.542Z,7.90
2019-02-20T22:55:14.001Z,7.90
2019-02-20T22:58:18.805Z,7.90
2019-02-20T23:01:30.335Z,7.90
2019-02-20T23:04:19.571Z,7.90
2019-02-20T23:07:16.707Z,7.90
2019-02-20T23:10:21.800Z,7.90
2019-02-20T23:13:24.796Z,7.90
2019-02-20T23:15:53.765Z,7.90
2019-02-20T23:18:22.935Z,7.90
2019-02-20T23:20:51.821Z,7.90
2019-02-20T23:23:20.589Z,7.90
2019-02-20T23:25:49.616Z,7.90
2019-02-20T23:28:18.556Z,7.80
2019-02-20T23:30:47.590Z,7.80
2019-02-20T23:33:16.492Z,7.80
2019-02-20T23:35:45.365Z,7.80
2019-02-20T23:38:14.347Z,7.90
2019-02-20T23:40:43.267Z,7.80
2019-02-20T23:43:12.485Z,7.90
2019-02-20T23:45:41.334Z,7.80
2019-02-20T23:48:10.605Z,7.90
2019-02-20T23:50:39.429Z,7.90
2019-02-20T23:53:08.299Z,7.90
2019-02-20T23:55:37.329Z,7.90
2019-02-20T23:58:06.396Z,7.90
